Time;durP1;ratioP1;P1;durP2;ratioP2;P2;SDS_P1;SDS_P2;PMS_P1;PMS_P2;Temp;Humidity;BMP_temperature;BMP_pressure;BME280_temperature;BME280_humidity;BME280_pressure;Samples;Min_cycle;Max_cycle;Signal;HPM_P1;HPM_P2
2023/11/10 00:04:20;;;;;;;0.88;0.22;;;;;;;11.36;71.88;98856.47;10266892;28;20128;-60
2023/11/10 00:09:23;;;;;;;1.23;0.82;;;;;;;11.29;72.18;98848.47;10254846;28;20106;-59
2023/11/10 00:14:25;;;;;;;6.50;0.40;;;;;;;11.32;71.62;98855.25;10268942;28;20047;-61
2023/11/10 00:19:42;;;;;;;2.85;0.30;;;;;;;11.38;71.32;98840.13;10273953;28;20086;-61
2023/11/10 00:24:46;;;;;;;2.90;0.32;;;;;;;11.39;71.60;98847.94;10264851;28;20375;-61
2023/11/10 00:29:48;;;;;;;1.55;0.30;;;;;;;11.49;71.49;98839.38;10258844;28;20127;-61
2023/11/10 00:34:49;;;;;;;1.50;0.40;;;;;;;11.52;71.53;98825.50;10228513;28;20052;-61
2023/11/10 00:39:51;;;;;;;1.13;0.30;;;;;;;11.45;71.01;98835.50;10243810;28;20990;-61
2023/11/10 00:44:52;;;;;;;2.08;0.20;;;;;;;11.34;71.38;98817.38;10228886;28;20051;-61
2023/11/10 00:49:54;;;;;;;4.00;0.30;;;;;;;11.29;71.81;98836.84;10243941;28;20172;-61
2023/11/10 00:54:55;;;;;;;0.57;0.30;;;;;;;11.26;71.62;98837.31;10225054;28;20047;-61
2023/11/10 00:59:57;;;;;;;0.75;0.32;;;;;;;11.29;71.49;98831.47;10243082;28;20529;-61
2023/11/10 01:04:58;;;;;;;3.22;0.40;;;;;;;11.23;71.70;98821.59;10244250;28;20634;-62
2023/11/10 01:09:59;;;;;;;3.05;0.30;;;;;;;11.21;72.15;98827.19;10241737;28;20055;-62
2023/11/10 01:15:01;;;;;;;1.45;0.25;;;;;;;11.19;71.80;98828.44;10230047;28;20047;-62
2023/11/10 01:20:07;;;;;;;3.97;0.52;;;;;;;11.16;71.99;98840.47;10241253;28;20502;-60
2023/11/10 01:25:10;;;;;;;4.05;0.40;;;;;;;10.85;72.95;98838.59;10249096;28;20054;-60
2023/11/10 01:30:12;;;;;;;2.40;0.38;;;;;;;10.62;74.18;98829.19;10245768;28;20047;-62
2023/11/10 01:35:14;;;;;;;2.65;0.40;;;;;;;10.52;74.20;98821.59;10262306;28;20083;-61
2023/11/10 01:40:16;;;;;;;0.75;0.40;;;;;;;10.60;74.11;98811.63;10280146;28;20049;-61
2023/11/10 01:45:18;;;;;;;1.00;0.77;;;;;;;10.56;74.60;98808.53;10284258;28;20050;-63
2023/11/10 01:50:20;;;;;;;2.90;0.40;;;;;;;10.47;74.66;98817.91;10280312;28;20125;-63
2023/11/10 01:55:21;;;;;;;3.40;0.40;;;;;;;10.45;74.83;98818.09;10285202;28;20715;-62
2023/11/10 02:00:26;;;;;;;1.65;0.35;;;;;;;10.31;74.94;98819.19;10280507;28;20468;-64
2023/11/10 02:05:28;;;;;;;3.63;0.40;;;;;;;10.07;75.76;98813.47;10283403;28;20046;-64
2023/11/10 02:10:29;;;;;;;0.40;0.20;;;;;;;10.07;75.78;98802.72;10278084;28;20039;-65
2023/11/10 02:15:31;;;;;;;5.15;0.43;;;;;;;9.93;75.82;98795.72;10260032;28;20147;-65
2023/11/10 02:20:32;;;;;;;0.85;0.25;;;;;;;9.83;76.48;98789.97;10291779;28;20297;-62
2023/11/10 02:25:35;;;;;;;1.45;0.28;;;;;;;9.87;75.74;98764.34;10285010;28;20568;-63
2023/11/10 02:30:36;;;;;;;0.32;0.20;;;;;;;9.88;75.62;98772.19;10331490;28;20408;-63
2023/11/10 02:35:38;;;;;;;1.90;0.20;;;;;;;9.86;75.53;98773.47;10331524;28;20045;-63
2023/11/10 02:40:39;;;;;;;1.10;0.20;;;;;;;9.83;75.57;98773.84;10324982;28;20038;-63
2023/11/10 02:45:40;;;;;;;3.17;0.28;;;;;;;9.81;75.72;98771.38;10330666;28;20482;-63
2023/11/10 02:50:44;;;;;;;1.92;0.20;;;;;;;9.79;75.54;98769.94;10328904;28;20093;-63
2023/11/10 02:55:45;;;;;;;2.42;0.20;;;;;;;9.81;76.13;98773.25;10326472;28;20049;-62
2023/11/10 03:00:47;;;;;;;2.15;0.30;;;;;;;9.84;75.86;98770.16;10328601;28;20043;-62
2023/11/10 03:05:49;;;;;;;2.08;0.20;;;;;;;9.85;75.97;98779.84;10325911;28;20129;-63
2023/11/10 03:10:50;;;;;;;5.10;0.55;;;;;;;9.91;76.18;98779.00;10278418;28;20054;-62
2023/11/10 03:15:52;;;;;;;2.35;0.40;;;;;;;10.01;75.54;98770.50;10290126;28;20055;-63
2023/11/10 03:20:54;;;;;;;3.03;0.40;;;;;;;10.09;75.55;98764.91;10289871;28;20557;-63
2023/11/10 03:25:55;;;;;;;1.38;0.38;;;;;;;10.12;76.03;98762.63;10323013;28;20510;-63
2023/11/10 03:30:57;;;;;;;3.15;0.40;;;;;;;10.16;75.78;98765.72;10304320;28;20590;-62
2023/11/10 03:35:58;;;;;;;3.30;0.40;;;;;;;10.06;76.11;98752.72;10327051;28;20493;-62
2023/11/10 03:41:00;;;;;;;2.42;0.35;;;;;;;10.04;76.69;98746.75;10326865;28;20045;-62
2023/11/10 03:46:01;;;;;;;0.93;0.32;;;;;;;10.06;76.52;98752.72;10321783;28;20035;-62
2023/11/10 03:51:12;;;;;;;10.43;0.50;;;;;;;10.08;76.68;98764.09;10326228;28;20073;-63
2023/11/10 03:56:13;;;;;;;1.30;0.40;;;;;;;10.01;76.82;98771.34;10323830;28;20070;-62
2023/11/10 04:01:15;;;;;;;0.40;0.20;;;;;;;9.83;77.69;98763.13;10328091;28;20497;-63
2023/11/10 04:06:17;;;;;;;2.50;0.32;;;;;;;9.80;78.06;98759.00;10321065;28;20642;-63
2023/11/10 04:11:31;;;;;;;2.97;0.40;;;;;;;9.75;78.01;98760.69;10310070;28;20043;-64
2023/11/10 04:16:33;;;;;;;0.88;0.28;;;;;;;9.77;77.65;98764.78;10323016;28;20046;-64
2023/11/10 04:21:34;;;;;;;1.65;0.50;;;;;;;9.67;77.73;98761.72;10324916;28;20429;-64
2023/11/10 04:26:37;;;;;;;2.17;0.40;;;;;;;9.44;79.01;98764.84;10306187;28;20070;-65
2023/11/10 04:31:39;;;;;;;1.48;0.40;;;;;;;9.52;78.73;98762.78;10285918;28;20057;-67
2023/11/10 04:36:43;;;;;;;3.03;0.40;;;;;;;9.37;78.89;98782.81;10283771;28;20060;-67
2023/11/10 04:41:46;;;;;;;6.20;0.40;;;;;;;9.40;79.14;98783.22;10286994;28;20148;-70
2023/11/10 04:46:47;;;;;;;3.63;0.30;;;;;;;9.30;79.28;98780.97;10266166;28;20038;-69
2023/11/10 04:51:49;;;;;;;2.67;0.50;;;;;;;9.44;79.05;98770.19;10270164;28;20133;-69
2023/11/10 04:56:50;;;;;;;7.18;0.60;;;;;;;9.38;79.23;98757.63;10267972;28;20081;-67
2023/11/10 05:01:52;;;;;;;8.32;0.50;;;;;;;9.34;79.63;98751.88;10285786;28;20043;-68
2023/11/10 05:06:53;;;;;;;3.60;0.57;;;;;;;9.21;79.95;98750.00;10284164;28;20097;-70
2023/11/10 05:11:55;;;;;;;1.85;0.52;;;;;;;9.30;79.30;98754.16;10282802;28;20097;-69
2023/11/10 05:16:56;;;;;;;1.55;0.50;;;;;;;9.25;79.62;98753.94;10283660;28;20046;-67
2023/11/10 05:21:57;;;;;;;1.48;0.30;;;;;;;9.21;79.81;98750.00;10280527;28;20039;-68
2023/11/10 05:26:59;;;;;;;1.33;0.40;;;;;;;9.06;80.03;98757.44;10278345;28;20066;-66
2023/11/10 05:32:01;;;;;;;2.15;0.57;;;;;;;9.05;79.92;98763.84;10263039;28;20042;-65
2023/11/10 05:37:03;;;;;;;2.00;0.20;;;;;;;9.01;80.01;98760.75;10282862;28;20047;-64
2023/11/10 05:42:05;;;;;;;3.63;0.40;;;;;;;8.97;80.23;98761.38;10285160;28;20039;-64
2023/11/10 05:47:06;;;;;;;2.72;0.28;;;;;;;8.95;80.29;98758.06;10280227;28;20051;-65
2023/11/10 05:52:12;;;;;;;3.10;0.30;;;;;;;8.91;80.36;98763.00;10280814;28;20055;-65
2023/11/10 05:57:15;;;;;;;2.10;0.20;;;;;;;8.80;80.45;98772.44;10276275;28;20489;-64
2023/11/10 06:02:17;;;;;;;3.53;0.20;;;;;;;8.75;80.44;98772.25;10284659;28;20078;-64
2023/11/10 06:07:19;;;;;;;3.10;0.20;;;;;;;8.76;80.20;98773.88;10281511;28;20631;-63
2023/11/10 06:12:21;;;;;;;2.30;1.27;;;;;;;8.63;80.40;98774.69;10279340;28;20785;-63
2023/11/10 06:17:22;;;;;;;2.47;0.20;;;;;;;8.62;79.97;98775.72;10280169;28;20038;-62
2023/11/10 06:22:25;;;;;;;3.05;0.22;;;;;;;8.58;80.22;98776.34;10257136;28;20559;-63
2023/11/10 06:27:27;;;;;;;1.98;0.20;;;;;;;8.60;80.07;98783.13;10303028;28;20043;-63
2023/11/10 06:32:30;;;;;;;3.45;0.28;;;;;;;8.62;79.71;98777.56;10294353;28;20054;-75
2023/11/10 06:37:32;;;;;;;1.30;0.30;;;;;;;8.62;79.61;98783.75;10300539;28;20054;-75
2023/11/10 06:42:33;;;;;;;1.58;0.40;;;;;;;8.63;79.48;98796.13;10300090;28;20034;-74
2023/11/10 06:47:35;;;;;;;0.70;0.20;;;;;;;8.60;79.16;98809.91;10284295;28;20042;-74
2023/11/10 06:52:37;;;;;;;1.35;0.20;;;;;;;8.54;79.53;98827.59;10322673;28;20499;-73
2023/11/10 06:57:39;;;;;;;1.20;0.20;;;;;;;8.53;79.77;98839.34;10325985;28;20042;-73
2023/11/10 07:02:42;;;;;;;0.73;0.20;;;;;;;8.69;79.46;98853.44;10327016;28;20035;-69
2023/11/10 07:07:44;;;;;;;1.05;0.30;;;;;;;8.70;79.41;98863.09;10304248;28;20441;-70
2023/11/10 07:12:46;;;;;;;0.50;0.30;;;;;;;8.70;78.93;98876.50;10326338;28;20049;-70
2023/11/10 07:17:48;;;;;;;1.55;0.28;;;;;;;8.78;78.96;98873.63;10295871;28;20554;-69
2023/11/10 07:22:49;;;;;;;4.18;0.30;;;;;;;8.91;78.99;98878.22;10328511;28;20062;-69
2023/11/10 07:27:51;;;;;;;1.65;0.20;;;;;;;8.96;78.89;98883.78;10309831;28;20050;-69
2023/11/10 07:32:54;;;;;;;3.25;0.40;;;;;;;9.04;78.78;98885.47;10307110;28;20058;-70
2023/11/10 07:37:56;;;;;;;3.03;0.30;;;;;;;9.04;78.75;98893.50;10288486;28;20517;-69
2023/11/10 07:42:57;;;;;;;3.70;0.20;;;;;;;9.14;78.42;98896.63;10309576;28;20129;-70
2023/11/10 07:48:00;;;;;;;2.15;0.20;;;;;;;9.22;78.46;98896.47;10304351;28;20105;-70
2023/11/10 07:53:02;;;;;;;0.35;0.28;;;;;;;9.32;78.38;98896.88;10299545;28;20046;-70
2023/11/10 07:58:05;;;;;;;4.78;0.32;;;;;;;9.43;78.22;98895.44;10320680;28;20039;-70
2023/11/10 08:03:06;;;;;;;0.85;0.10;;;;;;;9.44;78.38;98890.88;10323488;28;20050;-70
2023/11/10 08:08:08;;;;;;;2.35;0.30;;;;;;;9.49;78.18;98897.28;10310789;28;20054;-70
2023/11/10 08:13:09;;;;;;;0.82;0.40;;;;;;;9.52;78.12;98898.78;10301590;28;20042;-73
2023/11/10 08:18:11;;;;;;;2.13;0.20;;;;;;;9.58;77.91;98903.31;10329476;28;20051;-72
2023/11/10 08:23:16;;;;;;;2.85;0.25;;;;;;;9.60;77.79;98900.44;10305302;28;20051;-73
2023/11/10 08:28:18;;;;;;;0.40;0.15;;;;;;;9.63;77.60;98903.50;10318724;28;20043;-71
2023/11/10 08:33:20;;;;;;;1.52;0.25;;;;;;;9.68;77.72;98905.59;10284789;28;20046;-72
2023/11/10 08:38:21;;;;;;;5.60;0.15;;;;;;;9.77;77.48;98903.50;10284385;28;20062;-72
2023/11/10 08:43:24;;;;;;;0.55;0.20;;;;;;;9.84;77.67;98904.34;10271246;28;20057;-72
2023/11/10 08:48:25;;;;;;;1.00;0.20;;;;;;;10.01;76.84;98905.56;10287461;28;20049;-72
2023/11/10 08:53:27;;;;;;;0.52;0.30;;;;;;;10.04;77.27;98907.00;10282475;28;20070;-72
2023/11/10 08:58:28;;;;;;;2.03;0.20;;;;;;;9.99;77.33;98907.66;10319843;28;20057;-71
2023/11/10 09:03:30;;;;;;;2.47;0.10;;;;;;;9.93;77.65;98908.44;10310068;28;20091;-70
2023/11/10 09:08:31;;;;;;;1.67;0.20;;;;;;;9.79;77.83;98907.63;10337326;28;20845;-70
2023/11/10 09:13:33;;;;;;;0.45;0.20;;;;;;;9.87;77.44;98903.91;10334370;28;20051;-71
2023/11/10 09:18:34;;;;;;;3.55;0.10;;;;;;;10.09;76.99;98905.34;10308823;28;20225;-79
2023/11/10 09:23:36;;;;;;;2.38;0.20;;;;;;;10.10;76.96;98898.13;10321034;28;20445;-79
2023/11/10 09:28:38;;;;;;;0.75;0.20;;;;;;;10.28;76.83;98900.16;10301207;28;20056;-76
2023/11/10 09:33:39;;;;;;;2.22;0.25;;;;;;;10.45;76.22;98900.56;10290957;28;20051;-74
2023/11/10 09:38:41;;;;;;;1.33;0.30;;;;;;;10.31;75.79;98891.72;10279917;28;20501;-70
2023/11/10 09:43:45;;;;;;;1.23;0.10;;;;;;;10.42;75.54;98891.03;10285290;28;20126;-75
2023/11/10 09:48:48;;;;;;;4.47;1.35;;;;;;;10.60;75.24;98884.19;10297679;28;20050;-75
2023/11/10 09:53:52;;;;;;;6.70;0.60;;;;;;;10.56;75.00;98886.47;10292264;28;20042;-74
2023/11/10 09:58:54;;;;;;;2.63;0.10;;;;;;;10.51;74.81;98884.41;10282315;28;20051;-73
2023/11/10 10:03:55;;;;;;;2.42;0.15;;;;;;;10.69;74.19;98881.03;10302099;28;20038;-76
2023/11/10 10:09:01;;;;;;;2.15;0.20;;;;;;;10.89;73.84;98875.56;10320062;28;20064;-72
2023/11/10 10:14:03;;;;;;;3.55;0.20;;;;;;;10.99;73.63;98874.28;10299951;28;20141;-75
2023/11/10 10:19:05;;;;;;;2.63;0.17;;;;;;;11.05;72.82;98868.03;10321053;28;20054;-71
2023/11/10 10:24:07;;;;;;;2.15;0.20;;;;;;;11.06;72.43;98869.72;10308757;28;20092;-69
2023/11/10 10:29:08;;;;;;;5.82;0.30;;;;;;;11.40;71.87;98860.38;10314034;28;20052;-67
2023/11/10 10:34:10;;;;;;;2.35;0.60;;;;;;;11.58;70.87;98858.78;10317743;28;20057;-68
2023/11/10 10:39:15;;;;;;;1.02;0.13;;;;;;;11.66;70.43;98853.13;10297596;28;20532;-67
2023/11/10 10:44:20;;;;;;;0.50;0.20;;;;;;;11.65;70.85;98846.94;10317027;28;20681;-67
2023/11/10 10:49:23;;;;;;;3.25;0.30;;;;;;;11.82;70.78;98838.28;10325801;28;20413;-67
2023/11/10 10:54:26;;;;;;;1.65;0.60;;;;;;;11.94;70.31;98841.09;10334541;28;20076;-66
2023/11/10 10:59:29;;;;;;;1.15;0.20;;;;;;;11.83;69.09;98854.22;10313388;28;20046;-65
2023/11/10 11:04:52;;;;;;;0.98;0.30;;;;;;;12.04;68.70;98831.47;10328290;28;20050;-67
2023/11/10 11:10:06;;;;;;;3.50;0.40;;;;;;;12.16;67.99;98841.50;10328698;28;20389;-67
2023/11/10 11:15:23;;;;;;;1.00;0.28;;;;;;;12.02;67.73;98847.03;10326726;28;20093;-67
2023/11/10 11:20:25;;;;;;;0.60;0.32;;;;;;;11.89;67.56;98847.16;10326730;28;20080;-66
2023/11/10 11:25:28;;;;;;;1.52;1.00;;;;;;;11.82;66.86;98847.19;10323707;28;20057;-66
2023/11/10 11:30:35;;;;;;;3.20;0.55;;;;;;;11.88;66.18;98834.72;10322786;28;20054;-67
2023/11/10 11:35:46;;;;;;;1.55;0.25;;;;;;;11.97;66.10;98819.13;10296388;28;20061;-66
2023/11/10 11:40:49;;;;;;;0.55;0.20;;;;;;;12.19;65.15;98816.81;10321257;28;20117;-69
2023/11/10 11:45:58;;;;;;;2.10;0.20;;;;;;;12.26;64.96;98820.25;10308115;28;20066;-71
2023/11/10 11:51:03;;;;;;;3.13;0.30;;;;;;;12.33;64.38;98821.00;10320757;28;20378;-70
2023/11/10 11:56:06;;;;;;;1.67;0.30;;;;;;;12.41;64.38;98819.88;10276696;28;20049;-70
2023/11/10 12:01:09;;;;;;;2.40;0.10;;;;;;;12.28;63.42;98820.84;10295910;28;20047;-70
2023/11/10 12:06:11;;;;;;;0.43;0.20;;;;;;;12.44;62.94;98803.25;10257487;28;20061;-70
2023/11/10 12:11:13;;;;;;;1.00;0.73;;;;;;;12.61;62.88;98806.97;10283568;28;20054;-69
2023/11/10 12:16:15;;;;;;;1.70;0.20;;;;;;;12.44;63.18;98801.41;10282285;28;20410;-69
2023/11/10 12:21:27;;;;;;;1.45;0.20;;;;;;;12.42;62.31;98797.25;10267179;28;20134;-71
2023/11/10 12:26:39;;;;;;;2.65;0.20;;;;;;;12.40;62.26;98799.34;10296165;28;20038;-70
2023/11/10 12:31:42;;;;;;;1.65;0.20;;;;;;;12.40;61.80;98789.41;10322458;28;20054;-72
2023/11/10 12:36:46;;;;;;;2.15;0.80;;;;;;;12.39;61.57;98793.16;10293998;28;20405;-71
2023/11/10 12:41:51;;;;;;;3.10;0.20;;;;;;;12.55;61.11;98793.59;10312228;28;20053;-68
2023/11/10 12:46:57;;;;;;;0.63;0.10;;;;;;;12.47;61.42;98794.72;10281731;28;20052;-65
2023/11/10 12:52:01;;;;;;;2.85;0.30;;;;;;;12.47;61.25;98790.13;10321334;28;20057;-63
2023/11/10 12:57:03;;;;;;;5.25;0.20;;;;;;;12.59;61.63;98790.19;10303783;28;20102;-62
2023/11/10 13:02:04;;;;;;;2.15;0.40;;;;;;;12.64;61.67;98789.53;10334609;28;20452;-61
2023/11/10 13:07:06;;;;;;;1.60;0.20;;;;;;;12.57;61.72;98791.47;10334709;28;20705;-62
2023/11/10 13:12:10;;;;;;;1.92;0.30;;;;;;;12.39;61.62;98790.47;10326210;28;20614;-63
2023/11/10 13:17:11;;;;;;;2.10;0.20;;;;;;;12.36;61.77;98790.09;10335091;28;20057;-62
2023/11/10 13:22:17;;;;;;;2.25;0.20;;;;;;;12.25;61.34;98764.72;10321753;28;20062;-62
2023/11/10 13:27:18;;;;;;;2.22;0.30;;;;;;;12.25;61.01;98770.13;10324913;28;20133;-65
2023/11/10 13:32:20;;;;;;;6.38;0.90;;;;;;;12.33;61.26;98777.91;10293425;28;20053;-63
2023/11/10 13:37:21;;;;;;;1.30;0.30;;;;;;;12.39;61.56;98781.56;10317261;28;20133;-63
2023/11/10 13:42:23;;;;;;;7.40;0.25;;;;;;;12.36;60.72;98776.59;10325388;28;20073;-61
2023/11/10 13:47:24;;;;;;;1.90;0.47;;;;;;;12.36;60.98;98771.22;10324410;28;20493;-60
2023/11/10 13:52:26;;;;;;;3.13;0.63;;;;;;;12.22;60.82;98766.00;10328851;28;20061;-61
2023/11/10 13:57:27;;;;;;;4.75;0.30;;;;;;;12.16;60.51;98755.31;10323525;28;20133;-61
2023/11/10 14:02:32;;;;;;;2.28;0.43;;;;;;;12.15;60.94;98757.19;10320926;28;20050;-62
2023/11/10 14:07:38;;;;;;;2.10;0.30;;;;;;;11.93;60.37;98759.50;10318727;28;20049;-61
2023/11/10 14:12:41;;;;;;;3.92;0.38;;;;;;;11.98;60.66;98770.41;10343681;28;20077;-63
2023/11/10 14:17:42;;;;;;;4.03;0.30;;;;;;;11.99;60.91;98788.22;10340735;28;20060;-63
2023/11/10 14:22:44;;;;;;;2.90;1.50;;;;;;;11.79;61.50;98768.72;10345360;28;20054;-62
2023/11/10 14:27:45;;;;;;;1.30;0.30;;;;;;;11.84;61.94;98767.00;10325891;28;20065;-63
2023/11/10 14:32:47;;;;;;;2.63;0.63;;;;;;;11.78;61.62;98767.09;10323385;28;20054;-63
2023/11/10 14:37:51;;;;;;;4.13;0.30;;;;;;;11.84;61.56;98760.81;10343236;28;20043;-64
2023/11/10 14:42:53;;;;;;;2.83;0.30;;;;;;;11.89;61.57;98755.63;10363904;28;20042;-64
2023/11/10 14:47:55;;;;;;;2.65;0.50;;;;;;;11.87;60.78;98766.56;10347046;28;20061;-63
2023/11/10 14:52:56;;;;;;;0.55;0.15;;;;;;;11.96;61.18;98758.22;10366173;28;20070;-64
2023/11/10 14:58:00;;;;;;;3.88;0.40;;;;;;;11.88;61.09;98778.97;10359781;28;20052;-63
2023/11/10 15:03:04;;;;;;;1.98;0.25;;;;;;;11.96;61.03;98777.91;10364338;28;20421;-64
2023/11/10 15:08:06;;;;;;;1.85;0.30;;;;;;;11.97;60.96;98768.78;10354715;28;20046;-64
2023/11/10 15:13:11;;;;;;;3.45;0.22;;;;;;;12.02;61.47;98760.84;10334628;28;20050;-66
2023/11/10 15:18:17;;;;;;;2.85;0.20;;;;;;;12.00;61.47;98765.63;10312630;28;20042;-67
2023/11/10 15:23:22;;;;;;;2.28;0.20;;;;;;;12.08;61.79;98751.03;10309758;28;20478;-66
2023/11/10 15:28:26;;;;;;;0.40;0.10;;;;;;;12.01;62.35;98753.81;10299478;28;20265;-67
2023/11/10 15:33:28;;;;;;;2.97;0.55;;;;;;;11.92;62.38;98762.41;10311470;28;20056;-66
2023/11/10 15:38:31;;;;;;;3.30;0.20;;;;;;;11.97;62.36;98768.78;10331965;28;20073;-66
2023/11/10 15:43:32;;;;;;;1.45;0.13;;;;;;;11.90;62.48;98774.22;10341315;28;20424;-66
2023/11/10 15:48:34;;;;;;;0.90;0.10;;;;;;;11.84;62.42;98775.09;10317807;28;20122;-66
2023/11/10 15:53:45;;;;;;;2.30;0.20;;;;;;;11.73;62.74;98772.31;10326339;28;20070;-61
2023/11/10 15:58:47;;;;;;;4.43;0.20;;;;;;;11.69;62.83;98775.47;10319859;28;20049;-62
2023/11/10 16:03:49;;;;;;;3.80;0.50;;;;;;;11.61;63.24;98780.28;10319574;28;20034;-62
2023/11/10 16:08:51;;;;;;;1.48;0.20;;;;;;;11.49;63.40;98782.88;10323174;28;20131;-62
2023/11/10 16:13:53;;;;;;;1.33;0.30;;;;;;;11.32;63.91;98801.47;10325324;28;20428;-62
2023/11/10 16:18:54;;;;;;;1.92;0.10;;;;;;;11.24;63.83;98797.16;10305559;28;20525;-61
2023/11/10 16:23:56;;;;;;;2.78;0.30;;;;;;;11.24;63.69;98805.25;10336386;28;20069;-61
2023/11/10 16:28:59;;;;;;;3.50;0.38;;;;;;;11.30;64.07;98798.97;10333182;28;20091;-61
2023/11/10 16:34:00;;;;;;;2.75;0.50;;;;;;;11.24;64.22;98799.03;10337489;28;20053;-61
2023/11/10 16:39:02;;;;;;;3.28;0.20;;;;;;;11.29;64.07;98794.66;10328530;28;20100;-61
2023/11/10 16:44:06;;;;;;;8.10;2.13;;;;;;;11.33;64.88;98800.41;10327979;28;20417;-61
2023/11/10 16:49:10;;;;;;;1.33;0.85;;;;;;;11.33;64.87;98797.72;10315785;28;20054;-61
2023/11/10 16:54:12;;;;;;;3.05;1.42;;;;;;;11.32;64.77;98798.78;10329798;28;20042;-61
2023/11/10 16:59:13;;;;;;;4.30;1.15;;;;;;;11.35;64.71;98810.94;10325382;28;20129;-61
2023/11/10 17:04:16;;;;;;;3.42;0.57;;;;;;;11.23;65.35;98800.88;10337157;28;20046;-62
2023/11/10 17:09:18;;;;;;;2.28;0.40;;;;;;;11.21;65.22;98802.97;10335916;28;20576;-61
2023/11/10 17:14:20;;;;;;;2.50;0.20;;;;;;;11.14;65.34;98796.84;10331996;28;20043;-61
2023/11/10 17:19:21;;;;;;;4.57;0.73;;;;;;;11.06;65.76;98800.63;10330680;28;20055;-61
2023/11/10 17:24:24;;;;;;;1.55;0.60;;;;;;;11.13;65.66;98800.56;10330136;28;20082;-61
2023/11/10 17:29:25;;;;;;;4.50;0.70;;;;;;;11.04;66.47;98796.50;10323682;28;20556;-61
2023/11/10 17:34:27;;;;;;;2.97;0.95;;;;;;;10.96;66.91;98796.75;10329532;28;20073;-61
2023/11/10 17:39:30;;;;;;;4.53;1.00;;;;;;;10.94;66.91;98791.59;10329228;28;20054;-61
2023/11/10 17:44:34;;;;;;;3.92;0.63;;;;;;;10.87;67.28;98798.88;10330426;28;20517;-61
2023/11/10 17:49:36;;;;;;;1.85;0.60;;;;;;;10.78;67.63;98792.09;10332893;28;20055;-61
2023/11/10 17:54:37;;;;;;;2.47;0.93;;;;;;;10.68;68.33;98795.25;10331507;28;20084;-61
2023/11/10 17:59:39;;;;;;;4.43;0.50;;;;;;;10.64;68.03;98785.97;10331121;28;20175;-61
2023/11/10 18:04:41;;;;;;;6.15;0.43;;;;;;;10.69;68.05;98788.84;10315678;28;20042;-61
2023/11/10 18:09:55;;;;;;;2.17;0.63;;;;;;;10.67;68.34;98786.38;10313068;28;20054;-61
2023/11/10 18:14:57;;;;;;;1.92;0.90;;;;;;;10.74;68.57;98769.38;10329111;28;20042;-61
2023/11/10 18:19:58;;;;;;;4.40;0.65;;;;;;;10.66;68.92;98768.63;10319699;28;20047;-61
2023/11/10 18:25:00;;;;;;;6.25;0.68;;;;;;;10.64;69.06;98773.38;10316858;28;20042;-61
2023/11/10 18:30:03;;;;;;;6.03;0.50;;;;;;;10.68;68.85;98771.06;10327010;28;20165;-61
2023/11/10 18:35:05;;;;;;;4.82;0.75;;;;;;;10.63;68.92;98763.66;10331181;28;20042;-61
2023/11/10 18:40:08;;;;;;;6.68;0.70;;;;;;;10.50;69.23;98769.09;10332851;28;20062;-60
2023/11/10 18:45:11;;;;;;;3.17;0.60;;;;;;;10.11;70.51;98755.63;10320629;28;20074;-62
2023/11/10 18:50:14;;;;;;;2.65;0.50;;;;;;;10.01;70.94;98759.78;10320720;28;20068;-62
2023/11/10 18:55:15;;;;;;;4.45;0.60;;;;;;;9.86;71.72;98755.47;10340483;28;20070;-63
2023/11/10 19:00:18;;;;;;;2.35;0.50;;;;;;;9.75;71.83;98755.31;10342834;28;20042;-63
2023/11/10 19:05:22;;;;;;;5.82;1.05;;;;;;;9.71;72.22;98761.09;10336877;28;20053;-63
2023/11/10 19:10:24;;;;;;;4.80;1.25;;;;;;;9.74;71.96;98765.22;10343399;28;20077;-62
2023/11/10 19:15:25;;;;;;;4.45;0.80;;;;;;;9.70;72.32;98754.09;10339539;28;20618;-62
2023/11/10 19:20:27;;;;;;;3.25;0.45;;;;;;;9.72;72.23;98762.75;10334584;28;20053;-62
2023/11/10 19:25:29;;;;;;;2.63;0.50;;;;;;;9.77;72.36;98747.88;10327175;28;20058;-62
2023/11/10 19:30:32;;;;;;;5.07;0.68;;;;;;;9.80;71.79;98753.66;10330826;28;20060;-62
2023/11/10 19:35:35;;;;;;;4.50;0.50;;;;;;;9.89;71.54;98740.81;10317643;28;20120;-62
2023/11/10 19:40:37;;;;;;;2.00;0.40;;;;;;;9.86;71.64;98743.94;10322808;28;20646;-61
2023/11/10 19:45:39;;;;;;;7.45;1.00;;;;;;;9.91;71.22;98752.16;10332423;28;20038;-61
2023/11/10 19:50:40;;;;;;;4.80;0.40;;;;;;;9.91;71.31;98733.38;10326923;28;20050;-60
2023/11/10 19:55:43;;;;;;;4.63;0.50;;;;;;;9.88;71.47;98728.44;10320968;28;20042;-60
2023/11/10 20:00:44;;;;;;;1.35;0.40;;;;;;;9.91;71.02;98730.69;10325678;28;20053;-60
2023/11/10 20:05:48;;;;;;;2.80;0.32;;;;;;;9.98;70.80;98718.06;10329159;28;20521;-60
2023/11/10 20:10:50;;;;;;;1.83;0.57;;;;;;;10.09;70.97;98722.78;10322147;28;20049;-61
2023/11/10 20:15:51;;;;;;;2.33;0.40;;;;;;;10.09;70.29;98722.78;10328199;28;20038;-61
2023/11/10 20:20:54;;;;;;;2.22;0.30;;;;;;;10.11;70.74;98714.50;10322063;28;20093;-60
2023/11/10 20:25:55;;;;;;;2.88;0.30;;;;;;;10.15;70.19;98713.06;10329566;28;20045;-60
2023/11/10 20:31:00;;;;;;;4.85;1.00;;;;;;;10.16;70.74;98703.13;10320962;28;20043;-61
2023/11/10 20:36:01;;;;;;;2.05;0.52;;;;;;;10.18;70.17;98709.13;10327242;28;20049;-61
2023/11/10 20:41:03;;;;;;;0.65;0.20;;;;;;;10.14;70.19;98700.66;10326508;28;20052;-60
2023/11/10 20:46:09;;;;;;;1.73;0.68;;;;;;;10.17;69.99;98705.63;10323640;28;20042;-61
2023/11/10 20:51:17;;;;;;;3.10;0.20;;;;;;;10.24;69.93;98694.81;10323278;28;20058;-60
2023/11/10 20:56:19;;;;;;;4.57;0.30;;;;;;;10.23;69.98;98696.69;10329777;28;20371;-60
2023/11/10 21:01:22;;;;;;;2.17;0.68;;;;;;;10.28;69.45;98674.56;10322346;28;20057;-60
2023/11/10 21:06:25;;;;;;;0.70;0.32;;;;;;;10.31;69.81;98671.50;10302774;28;20054;-60
2023/11/10 21:11:27;;;;;;;2.42;0.25;;;;;;;10.33;69.73;98661.34;10307567;28;20129;-60
2023/11/10 21:16:29;;;;;;;4.25;0.20;;;;;;;10.35;69.67;98659.28;10323216;28;20109;-60
2023/11/10 21:21:31;;;;;;;4.38;0.20;;;;;;;10.34;69.60;98651.44;10322380;28;20056;-60
2023/11/10 21:26:33;;;;;;;0.95;0.25;;;;;;;10.31;69.35;98652.69;10324022;28;20064;-60
2023/11/10 21:31:35;;;;;;;2.55;0.40;;;;;;;10.37;69.42;98650.97;10322075;28;20114;-60
2023/11/10 21:36:37;;;;;;;1.27;0.40;;;;;;;10.40;68.90;98643.31;10320856;28;20050;-60
2023/11/10 21:41:39;;;;;;;4.10;0.60;;;;;;;10.41;69.24;98628.84;10321986;28;20104;-60
2023/11/10 21:46:40;;;;;;;4.75;0.40;;;;;;;10.31;69.59;98623.16;10324024;28;20818;-59
2023/11/10 21:51:42;;;;;;;2.25;0.40;;;;;;;10.28;69.37;98618.97;10319212;28;20484;-59
2023/11/10 21:56:49;;;;;;;4.68;0.65;;;;;;;10.29;69.47;98609.09;10319894;28;20057;-59
2023/11/10 22:01:51;;;;;;;4.32;0.40;;;;;;;10.24;69.98;98598.97;10321532;28;20048;-59
2023/11/10 22:06:52;;;;;;;4.80;0.30;;;;;;;10.17;69.85;98598.22;10327041;28;20042;-59
2023/11/10 22:11:54;;;;;;;4.60;0.50;;;;;;;10.15;69.92;98588.72;10325908;28;20042;-60
2023/11/10 22:16:55;;;;;;;5.57;0.77;;;;;;;10.13;70.11;98589.75;10289184;28;20081;-60
2023/11/10 22:21:57;;;;;;;2.63;0.40;;;;;;;10.18;70.22;98575.69;10309402;28;20053;-61
2023/11/10 22:26:58;;;;;;;3.28;0.60;;;;;;;10.18;70.23;98574.88;10323439;28;20061;-60
2023/11/10 22:31:59;;;;;;;5.47;0.60;;;;;;;10.30;70.02;98557.03;10322402;28;20042;-61
2023/11/10 22:37:03;;;;;;;4.10;0.40;;;;;;;10.28;69.89;98557.22;10320238;28;20042;-61
2023/11/10 22:42:05;;;;;;;5.22;0.65;;;;;;;10.44;69.93;98552.38;10328559;28;20082;-60
2023/11/10 22:47:06;;;;;;;3.55;0.63;;;;;;;10.42;69.90;98565.22;10332454;28;20073;-60
2023/11/10 22:52:08;;;;;;;6.95;0.80;;;;;;;10.28;70.18;98549.16;10330105;28;20140;-60
2023/11/10 22:57:09;;;;;;;4.05;0.40;;;;;;;10.18;70.45;98548.00;10328043;28;20489;-60
2023/11/10 23:02:11;;;;;;;3.22;0.60;;;;;;;10.15;70.69;98553.81;10336168;28;20112;-60
2023/11/10 23:07:13;;;;;;;6.22;0.60;;;;;;;10.07;71.03;98549.53;10333920;28;20125;-61
2023/11/10 23:12:14;;;;;;;5.20;0.70;;;;;;;10.01;70.71;98550.41;10325008;28;20050;-61
2023/11/10 23:17:17;;;;;;;4.32;0.50;;;;;;;9.89;71.18;98542.22;10304287;28;20043;-61
2023/11/10 23:22:19;;;;;;;2.65;0.50;;;;;;;9.95;71.18;98532.47;10324188;28;20049;-61
2023/11/10 23:27:20;;;;;;;4.68;0.43;;;;;;;9.85;71.33;98523.06;10311926;28;20049;-61
2023/11/10 23:32:22;;;;;;;4.50;0.88;;;;;;;9.87;71.53;98522.81;10327688;28;20070;-61